ハルビン の空港の天気 - METARとTAF

ハルビン太平国際空港 ( ZYHB / HRB ) - 中国 黒竜江省ハルビン市
飛行場実況気象(Metar)
観測時間07/16 14:00 CST (07/16 06:00 UTC)
風向・風速東南東 2m/s
視程10km以上
天気現象弱いしゅう雨
少しの雲 雲底高度 300m
全天の4割程度の雲 雲底高度 790m
少しの雲 雲底高度 790m
気温23℃
湿度89%
気圧1005hPa
METARZYHB 160600Z 11002MPS 080V150 9999 -SHRA FEW010 SCT026 FEW026CB 23/21 Q1005 RESHRA NOSIG
過去の天気等 Google飛行場航空写真 Wunderground天気予報

過去48時間のMETAR

飛行場予報(TAF)
発表時間: 7/16 11:10 CST (7/16 03:10 UTC)
予報対象時間: 16日14時 CST ~ 17日14時 CST
風向・風速南東 5m/s
視程6000m
全天の8割程度の雲 雲底高度 910m
16日14時 CST ~ 16日20時 CST に一時的に
風向・風速不定 7m/s 瞬間風速 13m/s
天気現象雷雨
全天の4割程度の積乱雲 雲底高度 700m
全天の8割程度の雲 雲底高度 790m
16日22時 CST ~ 16日23時 CST に徐々に
風向・風速南南西 4m/s
TAF ZYHB 160310Z 1606/1706 14005MPS 6000 BKN030 TX30/1606Z TN20/1621Z
TEMPO 1606/1612 VRB07G13MPS TSRA SCT023CB BKN026
BECMG 1614/1615 20004MPS